Time;durP1;ratioP1;P1;durP2;ratioP2;P2;SDS_P1;SDS_P2;PMS_P1;PMS_P2;Temp;Humidity;BMP_temperature;BMP_pressure;BME280_temperature;BME280_humidity;BME280_pressure;Samples;Min_cycle;Max_cycle;Signal;HPM_P1;HPM_P2
2023/07/26 00:02:04;;;;;;;3.30;2.40;;;;;;;;;;5032860;28;20321;-84
2023/07/26 00:04:31;;;;;;;3.00;2.37;;;;;;;;;;5041904;28;20210;-85
2023/07/26 00:06:58;;;;;;;3.33;2.50;;;;;;;;;;5044533;28;20692;-84
2023/07/26 00:09:25;;;;;;;2.70;2.27;;;;;;;;;;5045578;28;20660;-85
2023/07/26 00:11:54;;;;;;;2.80;2.43;;;;;;;;;;5044828;28;20672;-85
2023/07/26 00:14:21;;;;;;;3.87;2.50;;;;;;;;;;5045420;28;20217;-84
2023/07/26 00:16:49;;;;;;;3.87;2.50;;;;;;;;;;5052424;28;20676;-85
2023/07/26 00:19:19;;;;;;;6.03;2.17;;;;;;;;;;5042036;28;20567;-85
2023/07/26 00:21:46;;;;;;;3.47;2.70;;;;;;;;;;5033307;28;20293;-86
2023/07/26 00:24:13;;;;;;;2.97;2.10;;;;;;;;;;5044849;28;20199;-84
2023/07/26 00:26:40;;;;;;;3.87;2.33;;;;;;;;;;5045723;28;20226;-84
2023/07/26 00:29:09;;;;;;;6.23;2.53;;;;;;;;;;5041015;28;20617;-85
2023/07/26 00:31:36;;;;;;;8.37;2.50;;;;;;;;;;5048187;28;20205;-85
2023/07/26 00:34:03;;;;;;;3.53;2.17;;;;;;;;;;5042110;28;20236;-85
2023/07/26 00:36:30;;;;;;;4.03;2.63;;;;;;;;;;5047245;28;20734;-85
2023/07/26 00:38:57;;;;;;;4.17;2.83;;;;;;;;;;5052133;28;20232;-84
2023/07/26 00:41:24;;;;;;;3.37;2.87;;;;;;;;;;5044625;28;20198;-85
2023/07/26 00:43:51;;;;;;;4.33;2.33;;;;;;;;;;5043278;28;20234;-84
2023/07/26 00:46:20;;;;;;;3.33;2.60;;;;;;;;;;5040875;28;20201;-84
2023/07/26 00:48:47;;;;;;;6.87;2.63;;;;;;;;;;5039876;28;20237;-84
2023/07/26 00:51:14;;;;;;;5.57;2.67;;;;;;;;;;5049283;28;20203;-84
2023/07/26 00:53:41;;;;;;;2.40;2.20;;;;;;;;;;5039607;28;20236;-84
2023/07/26 00:56:09;;;;;;;6.03;2.40;;;;;;;;;;5041541;28;20201;-85
2023/07/26 00:58:36;;;;;;;8.17;2.60;;;;;;;;;;5038772;28;20226;-84
2023/07/26 01:01:04;;;;;;;3.00;2.20;;;;;;;;;;5058803;28;20205;-84
2023/07/26 01:03:33;;;;;;;2.70;2.50;;;;;;;;;;5041457;28;20241;-84
2023/07/26 01:06:11;;;;;;;3.07;2.53;;;;;;;;;;5050149;28;20209;-84
2023/07/26 01:08:44;;;;;;;2.60;2.40;;;;;;;;;;5047066;28;20260;-85
2023/07/26 01:11:14;;;;;;;7.03;2.63;;;;;;;;;;5043119;28;20225;-84
2023/07/26 01:13:46;;;;;;;4.33;2.90;;;;;;;;;;5036411;28;20238;-84
2023/07/26 01:16:13;;;;;;;4.27;2.53;;;;;;;;;;5043371;28;20205;-85
2023/07/26 01:18:41;;;;;;;2.53;2.20;;;;;;;;;;5037252;28;20226;-85
2023/07/26 01:21:08;;;;;;;4.33;2.90;;;;;;;;;;5052306;28;20201;-85
2023/07/26 01:23:38;;;;;;;2.77;2.13;;;;;;;;;;5052810;28;20734;-85
2023/07/26 01:26:06;;;;;;;4.57;2.43;;;;;;;;;;5053613;28;20218;-86
2023/07/26 01:28:33;;;;;;;3.40;2.20;;;;;;;;;;5052999;28;20225;-85
2023/07/26 01:31:01;;;;;;;2.93;2.50;;;;;;;;;;5036219;28;20668;-85
2023/07/26 01:33:30;;;;;;;6.40;2.37;;;;;;;;;;5041394;28;20229;-85
2023/07/26 01:35:58;;;;;;;3.60;2.20;;;;;;;;;;5050013;28;20206;-85
2023/07/26 01:38:26;;;;;;;4.10;2.40;;;;;;;;;;5044885;28;20222;-86
2023/07/26 01:40:55;;;;;;;6.87;2.33;;;;;;;;;;5045206;28;20665;-85
2023/07/26 01:43:23;;;;;;;4.83;2.17;;;;;;;;;;5049522;28;20229;-86
2023/07/26 01:45:50;;;;;;;3.30;2.33;;;;;;;;;;5049367;28;20202;-85
2023/07/26 01:48:17;;;;;;;4.33;2.47;;;;;;;;;;5036438;28;20222;-85
2023/07/26 01:50:44;;;;;;;5.97;2.17;;;;;;;;;;5043932;28;20217;-85
2023/07/26 01:53:11;;;;;;;4.17;2.10;;;;;;;;;;5053441;28;20233;-85
2023/07/26 01:55:38;;;;;;;3.10;2.30;;;;;;;;;;5045363;28;20673;-86
2023/07/26 01:58:06;;;;;;;4.93;2.37;;;;;;;;;;5046593;28;20616;-85
2023/07/26 02:00:33;;;;;;;2.43;2.00;;;;;;;;;;5042858;28;20206;-85
2023/07/26 02:03:00;;;;;;;4.23;2.20;;;;;;;;;;5053732;28;20234;-85
2023/07/26 02:05:27;;;;;;;4.27;2.20;;;;;;;;;;5056973;28;20232;-85
2023/07/26 02:07:54;;;;;;;8.00;2.13;;;;;;;;;;5039145;28;20233;-85
2023/07/26 02:10:22;;;;;;;2.30;2.10;;;;;;;;;;5049417;28;20210;-85
2023/07/26 02:12:49;;;;;;;5.23;2.20;;;;;;;;;;5039910;28;20236;-85
2023/07/26 02:15:18;;;;;;;4.37;1.93;;;;;;;;;;5055731;28;20229;-85
2023/07/26 02:17:45;;;;;;;3.40;2.20;;;;;;;;;;5048169;28;20227;-85
2023/07/26 02:20:12;;;;;;;4.17;2.13;;;;;;;;;;5038129;28;20210;-85
2023/07/26 02:22:40;;;;;;;2.20;2.00;;;;;;;;;;5055232;28;20445;-85
2023/07/26 02:25:07;;;;;;;3.50;2.20;;;;;;;;;;5056114;28;20210;-86
2023/07/26 02:27:34;;;;;;;2.50;2.30;;;;;;;;;;5055186;28;20704;-85
2023/07/26 02:30:01;;;;;;;1.93;1.80;;;;;;;;;;5056156;28;20210;-85
2023/07/26 02:32:29;;;;;;;2.60;1.93;;;;;;;;;;5055459;28;20233;-85
2023/07/26 02:34:56;;;;;;;5.53;2.43;;;;;;;;;;5048047;28;20209;-85
2023/07/26 02:37:24;;;;;;;3.73;2.43;;;;;;;;;;5043306;28;20238;-85
2023/07/26 02:39:52;;;;;;;3.37;2.30;;;;;;;;;;5035840;28;20207;-85
2023/07/26 02:42:19;;;;;;;2.10;1.90;;;;;;;;;;5041252;28;20699;-86
2023/07/26 02:44:47;;;;;;;3.90;2.10;;;;;;;;;;5053820;28;20213;-85
2023/07/26 02:47:14;;;;;;;3.33;2.20;;;;;;;;;;5043245;28;20230;-86
2023/07/26 02:49:42;;;;;;;2.23;2.03;;;;;;;;;;5035473;28;20230;-85
2023/07/26 02:52:09;;;;;;;2.33;2.17;;;;;;;;;;5039961;28;20233;-85
2023/07/26 02:54:37;;;;;;;3.97;2.20;;;;;;;;;;5050160;28;20217;-85
2023/07/26 02:57:04;;;;;;;3.87;2.37;;;;;;;;;;5034873;28;20603;-86
2023/07/26 02:59:31;;;;;;;3.10;2.17;;;;;;;;;;5048801;28;20209;-86
2023/07/26 03:01:58;;;;;;;2.47;2.20;;;;;;;;;;5041211;28;20205;-85
2023/07/26 03:04:25;;;;;;;2.70;2.43;;;;;;;;;;5055932;28;20213;-85
2023/07/26 03:06:53;;;;;;;3.47;2.60;;;;;;;;;;5047055;28;20416;-85
2023/07/26 03:09:20;;;;;;;2.57;2.00;;;;;;;;;;5038837;28;20229;-85
2023/07/26 03:11:47;;;;;;;2.53;2.03;;;;;;;;;;5041058;28;20402;-86
2023/07/26 03:14:14;;;;;;;4.57;2.40;;;;;;;;;;5055186;28;20213;-85
2023/07/26 03:16:41;;;;;;;2.20;2.00;;;;;;;;;;5053866;28;20241;-86
2023/07/26 03:19:09;;;;;;;3.60;2.17;;;;;;;;;;5054019;28;20209;-85
2023/07/26 03:21:36;;;;;;;3.17;2.17;;;;;;;;;;5046407;28;20214;-85
2023/07/26 03:24:04;;;;;;;7.67;2.30;;;;;;;;;;5054642;28;20234;-85
2023/07/26 03:26:31;;;;;;;2.00;1.80;;;;;;;;;;5055277;28;20577;-85
2023/07/26 03:28:59;;;;;;;2.90;1.80;;;;;;;;;;5037747;28;20237;-85
2023/07/26 03:31:26;;;;;;;3.40;1.90;;;;;;;;;;5035470;28;20203;-85
2023/07/26 03:33:53;;;;;;;2.10;1.63;;;;;;;;;;5053775;28;20236;-86
2023/07/26 03:36:20;;;;;;;2.97;1.90;;;;;;;;;;5050947;28;20233;-86
2023/07/26 03:38:47;;;;;;;2.53;1.90;;;;;;;;;;5039851;28;20242;-85
2023/07/26 03:41:15;;;;;;;4.40;2.67;;;;;;;;;;5045950;28;20202;-85
2023/07/26 03:43:42;;;;;;;2.37;2.10;;;;;;;;;;5054730;28;20711;-85
2023/07/26 03:46:10;;;;;;;3.93;2.20;;;;;;;;;;5054974;28;20668;-85
2023/07/26 03:48:37;;;;;;;4.60;2.07;;;;;;;;;;5041258;28;20603;-86
2023/07/26 03:51:04;;;;;;;2.90;1.80;;;;;;;;;;5034841;28;20555;-86
2023/07/26 03:53:31;;;;;;;2.13;1.90;;;;;;;;;;5049700;28;20230;-85
2023/07/26 03:55:58;;;;;;;2.83;2.13;;;;;;;;;;5055583;28;20214;-86
2023/07/26 03:58:26;;;;;;;3.17;2.13;;;;;;;;;;5054366;28;20236;-85
2023/07/26 04:00:53;;;;;;;2.70;2.07;;;;;;;;;;5043552;28;20592;-86
2023/07/26 04:03:20;;;;;;;2.47;2.27;;;;;;;;;;5053778;28;20706;-85
2023/07/26 04:05:48;;;;;;;2.53;2.20;;;;;;;;;;5055292;28;20206;-85
2023/07/26 04:08:15;;;;;;;5.67;2.47;;;;;;;;;;5035502;28;20453;-86
2023/07/26 04:10:42;;;;;;;2.30;2.10;;;;;;;;;;5049938;28;20206;-85
2023/07/26 04:13:09;;;;;;;2.13;1.97;;;;;;;;;;5054227;28;20230;-84
2023/07/26 04:15:37;;;;;;;3.07;2.30;;;;;;;;;;5053820;28;20202;-85
2023/07/26 04:18:04;;;;;;;4.13;2.50;;;;;;;;;;5043852;28;20238;-86
2023/07/26 04:20:31;;;;;;;4.30;2.20;;;;;;;;;;5046517;28;20202;-85
2023/07/26 04:22:58;;;;;;;3.00;2.03;;;;;;;;;;5044805;28;20236;-87
2023/07/26 04:25:25;;;;;;;2.90;2.17;;;;;;;;;;5054410;28;20205;-87
2023/07/26 04:27:52;;;;;;;2.10;1.90;;;;;;;;;;5054459;28;20734;-85
2023/07/26 04:30:20;;;;;;;2.87;1.97;;;;;;;;;;5052220;28;20232;-84
2023/07/26 04:32:48;;;;;;;2.33;2.13;;;;;;;;;;5040539;28;20229;-84
2023/07/26 04:35:15;;;;;;;2.30;2.10;;;;;;;;;;5039960;28;20756;-84
2023/07/26 04:37:42;;;;;;;2.93;1.93;;;;;;;;;;5046946;28;20233;-83
2023/07/26 04:40:10;;;;;;;4.13;2.30;;;;;;;;;;5044196;28;20209;-84
2023/07/26 04:42:37;;;;;;;3.47;2.23;;;;;;;;;;5033089;28;20728;-83
2023/07/26 04:45:04;;;;;;;6.30;3.13;;;;;;;;;;5050481;28;20217;-84
2023/07/26 04:47:33;;;;;;;3.17;2.50;;;;;;;;;;5044923;28;20782;-83
2023/07/26 04:50:01;;;;;;;2.33;2.13;;;;;;;;;;5052636;28;20714;-83
2023/07/26 04:52:28;;;;;;;2.43;2.27;;;;;;;;;;5053360;28;20233;-83
2023/07/26 04:54:56;;;;;;;3.13;2.60;;;;;;;;;;5053729;28;20229;-83
2023/07/26 04:57:23;;;;;;;3.57;2.37;;;;;;;;;;5052808;28;20595;-84
2023/07/26 04:59:50;;;;;;;3.10;2.60;;;;;;;;;;5038459;28;20657;-84
2023/07/26 05:02:17;;;;;;;2.43;2.10;;;;;;;;;;5041345;28;20584;-85
2023/07/26 05:04:44;;;;;;;5.57;2.40;;;;;;;;;;5047549;28;20670;-86
2023/07/26 05:07:12;;;;;;;2.50;2.30;;;;;;;;;;5053405;28;20256;-84
2023/07/26 05:09:40;;;;;;;2.80;2.30;;;;;;;;;;5053790;28;20218;-83
2023/07/26 05:12:07;;;;;;;2.23;2.03;;;;;;;;;;5052443;28;20236;-86
2023/07/26 05:14:34;;;;;;;3.97;2.37;;;;;;;;;;5032368;28;20214;-83
2023/07/26 05:17:01;;;;;;;2.77;2.57;;;;;;;;;;5049371;28;20245;-86
2023/07/26 05:19:29;;;;;;;3.93;2.70;;;;;;;;;;5044345;28;20201;-83
2023/07/26 05:21:56;;;;;;;2.63;2.43;;;;;;;;;;5052404;28;20209;-85
2023/07/26 05:24:24;;;;;;;6.43;2.83;;;;;;;;;;5042197;28;20206;-84
2023/07/26 05:26:51;;;;;;;4.27;3.00;;;;;;;;;;5032527;28;20739;-85
2023/07/26 05:29:18;;;;;;;2.33;2.13;;;;;;;;;;5049856;28;20240;-85
2023/07/26 05:31:45;;;;;;;3.03;2.50;;;;;;;;;;5032628;28;20207;-86
2023/07/26 05:34:12;;;;;;;3.90;2.50;;;;;;;;;;5049787;28;20210;-84
2023/07/26 05:36:39;;;;;;;2.73;2.30;;;;;;;;;;5042152;28;20229;-84
2023/07/26 05:39:06;;;;;;;2.40;2.20;;;;;;;;;;5036571;28;20593;-86
2023/07/26 05:41:35;;;;;;;3.83;2.73;;;;;;;;;;5033860;28;20562;-86
2023/07/26 05:44:02;;;;;;;2.90;2.70;;;;;;;;;;5033155;28;20241;-85
2023/07/26 05:46:29;;;;;;;3.73;2.37;;;;;;;;;;5033352;28;20230;-85
2023/07/26 05:48:56;;;;;;;4.10;2.40;;;;;;;;;;5033237;28;20237;-85
2023/07/26 05:51:23;;;;;;;3.80;2.43;;;;;;;;;;5032833;28;20207;-87
2023/07/26 05:53:50;;;;;;;4.13;2.70;;;;;;;;;;5033512;28;20237;-87
2023/07/26 05:56:17;;;;;;;3.30;3.00;;;;;;;;;;5035133;28;20739;-86
2023/07/26 05:58:46;;;;;;;3.70;2.60;;;;;;;;;;5052108;28;20320;-87
2023/07/26 06:01:13;;;;;;;4.60;2.60;;;;;;;;;;5048604;28;20206;-87
2023/07/26 06:03:40;;;;;;;3.07;2.87;;;;;;;;;;5053071;28;20781;-86
2023/07/26 06:06:07;;;;;;;3.20;2.80;;;;;;;;;;5044930;28;20197;-86
2023/07/26 06:08:34;;;;;;;3.63;2.73;;;;;;;;;;5049860;28;20237;-85
2023/07/26 06:11:01;;;;;;;6.37;2.93;;;;;;;;;;5052778;28;20213;-86
2023/07/26 06:13:28;;;;;;;4.90;3.13;;;;;;;;;;5052892;28;20786;-86
2023/07/26 06:15:57;;;;;;;5.77;3.60;;;;;;;;;;5052468;28;20206;-84
2023/07/26 06:18:36;;;;;;;6.17;3.40;;;;;;;;;;5049040;28;20225;-87
2023/07/26 06:21:03;;;;;;;3.73;3.27;;;;;;;;;;5031778;28;20203;-88
2023/07/26 06:23:30;;;;;;;3.60;3.30;;;;;;;;;;5036870;28;20226;-86
2023/07/26 06:25:57;;;;;;;5.40;3.50;;;;;;;;;;5057462;28;20699;-86
2023/07/26 06:28:24;;;;;;;5.33;3.30;;;;;;;;;;5045918;28;20234;-87
2023/07/26 06:30:52;;;;;;;4.57;3.73;;;;;;;;;;5036821;28;20227;-86
2023/07/26 06:33:20;;;;;;;4.43;3.07;;;;;;;;;;5038281;28;20242;-86
2023/07/26 06:35:47;;;;;;;4.53;3.30;;;;;;;;;;5057120;28;20678;-87
2023/07/26 06:38:14;;;;;;;4.57;3.67;;;;;;;;;;5056468;28;20244;-86
2023/07/26 06:40:41;;;;;;;6.67;3.20;;;;;;;;;;5049985;28;20211;-86
2023/07/26 06:43:09;;;;;;;5.23;3.77;;;;;;;;;;5036062;28;20235;-86
2023/07/26 06:45:36;;;;;;;7.70;3.37;;;;;;;;;;5052427;28;20202;-86
2023/07/26 06:48:03;;;;;;;3.97;3.10;;;;;;;;;;5042894;28;20306;-86
2023/07/26 06:50:31;;;;;;;3.30;3.00;;;;;;;;;;5055381;28;20676;-86
2023/07/26 06:52:58;;;;;;;4.53;2.70;;;;;;;;;;5040053;28;20241;-88
2023/07/26 06:55:26;;;;;;;3.10;2.67;;;;;;;;;;5047469;28;20206;-87
2023/07/26 06:57:53;;;;;;;4.40;2.93;;;;;;;;;;5035227;28;20235;-86
2023/07/26 07:00:20;;;;;;;3.23;2.77;;;;;;;;;;5046768;28;20252;-86
2023/07/26 07:02:47;;;;;;;6.20;2.97;;;;;;;;;;5054083;28;20609;-85
2023/07/26 07:05:15;;;;;;;4.37;3.13;;;;;;;;;;5054856;28;20587;-86
2023/07/26 07:07:43;;;;;;;6.53;3.10;;;;;;;;;;5051448;28;20242;-85
2023/07/26 07:10:10;;;;;;;2.90;2.70;;;;;;;;;;5055709;28;20218;-84
2023/07/26 07:12:37;;;;;;;3.37;3.00;;;;;;;;;;5050591;28;20226;-85
2023/07/26 07:15:05;;;;;;;4.20;2.80;;;;;;;;;;5047413;28;20213;-84
2023/07/26 07:17:32;;;;;;;3.73;2.67;;;;;;;;;;5051844;28;20599;-85
2023/07/26 07:19:59;;;;;;;3.60;3.00;;;;;;;;;;5049114;28;20328;-84
2023/07/26 07:22:27;;;;;;;6.63;2.90;;;;;;;;;;5052213;28;20229;-85
2023/07/26 07:24:55;;;;;;;3.17;2.70;;;;;;;;;;5054832;28;20293;-86
2023/07/26 07:27:22;;;;;;;4.73;2.77;;;;;;;;;;5052445;28;20237;-85
2023/07/26 07:29:49;;;;;;;5.63;3.13;;;;;;;;;;5048888;28;20233;-86
2023/07/26 07:32:17;;;;;;;5.63;2.90;;;;;;;;;;5054772;28;20708;-85
2023/07/26 07:34:44;;;;;;;6.13;3.10;;;;;;;;;;5041485;28;20210;-85
2023/07/26 07:37:11;;;;;;;3.70;2.50;;;;;;;;;;5042460;28;20234;-86
2023/07/26 07:39:44;;;;;;;3.23;2.90;;;;;;;;;;5043343;28;20696;-85
2023/07/26 07:42:13;;;;;;;5.13;3.10;;;;;;;;;;5045543;28;20245;-84
2023/07/26 07:44:40;;;;;;;5.03;2.93;;;;;;;;;;5034806;28;20210;-85
2023/07/26 07:47:07;;;;;;;5.00;2.87;;;;;;;;;;5039560;28;20242;-85
2023/07/26 07:49:34;;;;;;;3.77;3.20;;;;;;;;;;5056738;28;20218;-85
2023/07/26 07:52:01;;;;;;;3.40;3.10;;;;;;;;;;5055452;28;20245;-85
2023/07/26 07:54:28;;;;;;;3.20;2.90;;;;;;;;;;5046407;28;20691;-85
2023/07/26 07:56:55;;;;;;;6.07;3.13;;;;;;;;;;5048418;28;20720;-86
2023/07/26 07:59:24;;;;;;;5.37;3.03;;;;;;;;;;5035085;28;20213;-85
2023/07/26 08:01:51;;;;;;;3.63;2.90;;;;;;;;;;5047167;28;20218;-85
2023/07/26 08:04:18;;;;;;;3.63;2.80;;;;;;;;;;5050464;28;20210;-85
2023/07/26 08:06:45;;;;;;;2.80;2.50;;;;;;;;;;5047761;28;20317;-86
2023/07/26 08:09:12;;;;;;;4.60;2.93;;;;;;;;;;5041016;28;20211;-85
2023/07/26 08:11:39;;;;;;;2.70;2.47;;;;;;;;;;5040905;28;20203;-85
2023/07/26 08:14:06;;;;;;;4.50;2.40;;;;;;;;;;5036055;28;20257;-85
2023/07/26 08:16:35;;;;;;;2.90;2.60;;;;;;;;;;5034879;28;20245;-84
2023/07/26 08:19:03;;;;;;;3.87;2.30;;;;;;;;;;5043620;28;20226;-84
2023/07/26 08:21:30;;;;;;;2.80;2.60;;;;;;;;;;5052103;28;20226;-84
2023/07/26 08:23:57;;;;;;;3.80;2.40;;;;;;;;;;5043149;28;20236;-85
2023/07/26 08:26:24;;;;;;;4.00;2.87;;;;;;;;;;5052841;28;20206;-84
2023/07/26 08:28:51;;;;;;;3.40;2.57;;;;;;;;;;5051410;28;20237;-85
2023/07/26 08:31:18;;;;;;;3.57;2.67;;;;;;;;;;5046063;28;20230;-84
2023/07/26 08:33:47;;;;;;;4.80;2.20;;;;;;;;;;5031543;28;20227;-84
2023/07/26 08:36:14;;;;;;;6.00;2.40;;;;;;;;;;5050859;28;20217;-85
2023/07/26 08:38:41;;;;;;;2.43;2.23;;;;;;;;;;5043300;28;20233;-85
2023/07/26 08:41:08;;;;;;;2.43;2.03;;;;;;;;;;5046857;28;20547;-85
2023/07/26 08:43:36;;;;;;;2.47;2.27;;;;;;;;;;5040020;28;20321;-85
2023/07/26 08:46:05;;;;;;;2.73;2.30;;;;;;;;;;5051972;28;20225;-85
2023/07/26 08:48:33;;;;;;;2.70;2.33;;;;;;;;;;5051310;28;20226;-85
2023/07/26 08:51:02;;;;;;;3.03;2.00;;;;;;;;;;5048079;28;20619;-85
2023/07/26 08:53:29;;;;;;;2.63;2.00;;;;;;;;;;5036609;28;20802;-85
2023/07/26 08:55:56;;;;;;;3.83;2.27;;;;;;;;;;5031467;28;20557;-85
2023/07/26 08:58:24;;;;;;;1.87;1.50;;;;;;;;;;5030608;28;20739;-85
2023/07/26 09:00:51;;;;;;;2.00;1.90;;;;;;;;;;5031736;28;20991;-84
2023/07/26 09:03:18;;;;;;;3.07;2.03;;;;;;;;;;5042405;28;20237;-84
2023/07/26 09:05:45;;;;;;;2.23;2.00;;;;;;;;;;5031932;28;20206;-85
2023/07/26 09:08:13;;;;;;;2.10;2.00;;;;;;;;;;5031241;28;20230;-85
2023/07/26 09:10:41;;;;;;;2.10;1.90;;;;;;;;;;5042348;28;20226;-84
2023/07/26 09:13:09;;;;;;;2.28;2.10;;;;;;;;;;5039025;28;20237;-84
2023/07/26 09:15:37;;;;;;;3.50;2.20;;;;;;;;;;5040150;28;20221;-84
2023/07/26 09:18:04;;;;;;;2.90;1.92;;;;;;;;;;5031560;28;20283;-84
2023/07/26 09:20:32;;;;;;;2.10;1.90;;;;;;;;;;5031675;28;20253;-84
2023/07/26 09:23:00;;;;;;;2.78;2.28;;;;;;;;;;5030848;28;20246;-85
2023/07/26 09:25:32;;;;;;;3.50;2.30;;;;;;;;;;5031671;28;20249;-83
2023/07/26 09:27:59;;;;;;;5.35;2.67;;;;;;;;;;5031472;28;20726;-84
2023/07/26 09:30:27;;;;;;;2.85;1.92;;;;;;;;;;5030655;28;20280;-85
2023/07/26 09:32:55;;;;;;;2.53;2.33;;;;;;;;;;5031651;28;20236;-86
2023/07/26 09:35:22;;;;;;;5.20;2.10;;;;;;;;;;5035797;28;20222;-85
2023/07/26 09:37:49;;;;;;;3.47;2.30;;;;;;;;;;5031369;28;20229;-86
2023/07/26 09:40:16;;;;;;;1.77;1.67;;;;;;;;;;5040516;28;20211;-85
2023/07/26 09:42:45;;;;;;;2.28;1.92;;;;;;;;;;5035333;28;20579;-85
2023/07/26 09:45:16;;;;;;;2.67;2.20;;;;;;;;;;5051952;28;20711;-85
2023/07/26 09:47:43;;;;;;;2.00;1.80;;;;;;;;;;5043849;28;20244;-84
2023/07/26 09:50:24;;;;;;;2.85;2.30;;;;;;;;;;5046756;28;20230;-85
2023/07/26 09:52:53;;;;;;;2.33;2.13;;;;;;;;;;5047726;28;20226;-85
2023/07/26 09:55:21;;;;;;;2.38;2.17;;;;;;;;;;5044302;28;20212;-86
2023/07/26 09:57:50;;;;;;;2.22;2.00;;;;;;;;;;5044765;28;20233;-85
2023/07/26 10:00:17;;;;;;;2.42;2.22;;;;;;;;;;5056501;28;20202;-85
2023/07/26 10:02:47;;;;;;;2.42;2.13;;;;;;;;;;5057406;28;20812;-84
2023/07/26 10:05:17;;;;;;;3.67;1.88;;;;;;;;;;5055598;28;20245;-86
2023/07/26 10:07:45;;;;;;;2.53;2.00;;;;;;;;;;5046630;28;20246;-85
2023/07/26 10:10:13;;;;;;;2.35;2.10;;;;;;;;;;5055991;28;20221;-84
2023/07/26 10:12:41;;;;;;;2.85;1.88;;;;;;;;;;5048782;28;20739;-85
2023/07/26 10:15:10;;;;;;;2.72;1.85;;;;;;;;;;5055481;28;20571;-84
2023/07/26 10:17:38;;;;;;;3.08;2.25;;;;;;;;;;5054589;28;20599;-84
2023/07/26 10:20:07;;;;;;;5.90;1.80;;;;;;;;;;5055355;28;20194;-84
2023/07/26 10:22:35;;;;;;;2.55;1.95;;;;;;;;;;5047955;28;20227;-85
2023/07/26 10:25:02;;;;;;;4.15;1.92;;;;;;;;;;5055532;28;20205;-84
2023/07/26 10:27:30;;;;;;;3.20;2.17;;;;;;;;;;5055090;28;20245;-85
2023/07/26 10:29:57;;;;;;;2.30;1.95;;;;;;;;;;5055753;28;20206;-85
2023/07/26 10:32:26;;;;;;;3.97;1.83;;;;;;;;;;5054684;28;20222;-84
2023/07/26 10:34:56;;;;;;;5.93;1.85;;;;;;;;;;5053613;28;20187;-86
2023/07/26 10:37:23;;;;;;;2.45;1.77;;;;;;;;;;5049261;28;20230;-86
2023/07/26 10:39:51;;;;;;;2.65;1.70;;;;;;;;;;5055305;28;20701;-85
2023/07/26 10:42:24;;;;;;;2.88;2.00;;;;;;;;;;5050442;28;20241;-84
2023/07/26 10:44:53;;;;;;;2.15;1.95;;;;;;;;;;5046873;28;20209;-85
2023/07/26 10:47:20;;;;;;;2.90;1.95;;;;;;;;;;5045893;28;20235;-85
2023/07/26 10:49:49;;;;;;;2.72;1.67;;;;;;;;;;5047061;28;20202;-85
2023/07/26 10:52:16;;;;;;;1.92;1.65;;;;;;;;;;5054047;28;20610;-85
2023/07/26 10:54:44;;;;;;;1.58;1.48;;;;;;;;;;5055298;28;20213;-84
2023/07/26 10:57:15;;;;;;;2.05;1.90;;;;;;;;;;5054442;28;20240;-84
2023/07/26 10:59:50;;;;;;;2.20;1.60;;;;;;;;;;5054342;28;20210;-85
2023/07/26 11:02:18;;;;;;;2.03;1.60;;;;;;;;;;5047813;28;20232;-86
2023/07/26 11:04:46;;;;;;;3.40;1.60;;;;;;;;;;5055837;28;20668;-85
2023/07/26 11:07:14;;;;;;;2.50;1.30;;;;;;;;;;5054429;28;20245;-85
2023/07/26 11:09:42;;;;;;;1.98;1.52;;;;;;;;;;5053691;28;20221;-85
2023/07/26 11:12:11;;;;;;;2.50;1.60;;;;;;;;;;5054762;28;20344;-85
2023/07/26 11:14:38;;;;;;;4.55;1.92;;;;;;;;;;5052669;28;20210;-85
2023/07/26 11:17:14;;;;;;;3.80;1.77;;;;;;;;;;5053295;28;20240;-85
2023/07/26 11:19:45;;;;;;;1.83;1.60;;;;;;;;;;5053295;28;20311;-86
2023/07/26 11:22:12;;;;;;;2.28;1.50;;;;;;;;;;5053250;28;20229;-85
2023/07/26 11:24:41;;;;;;;2.33;1.90;;;;;;;;;;5051654;28;20643;-85
2023/07/26 11:27:09;;;;;;;6.60;2.00;;;;;;;;;;5043560;28;20245;-85
2023/07/26 11:29:36;;;;;;;3.22;1.75;;;;;;;;;;5053326;28;20210;-84
2023/07/26 11:32:04;;;;;;;1.80;1.70;;;;;;;;;;5053185;28;20244;-85
2023/07/26 11:34:31;;;;;;;4.45;1.70;;;;;;;;;;5053806;28;20206;-86
2023/07/26 11:37:06;;;;;;;2.45;1.90;;;;;;;;;;5050042;28;20229;-84
2023/07/26 11:39:33;;;;;;;1.75;1.65;;;;;;;;;;5045605;28;20734;-83
2023/07/26 11:42:02;;;;;;;1.90;1.70;;;;;;;;;;5053207;28;26053;-90
2023/07/26 11:44:29;;;;;;;4.28;1.88;;;;;;;;;;5053858;28;20275;-87
2023/07/26 11:46:57;;;;;;;3.00;1.77;;;;;;;;;;5052870;28;20233;-88
2023/07/26 11:49:25;;;;;;;3.25;1.60;;;;;;;;;;5054141;28;20660;-85
2023/07/26 11:51:52;;;;;;;1.80;1.70;;;;;;;;;;5053343;28;20228;-85
2023/07/26 11:54:19;;;;;;;3.80;2.03;;;;;;;;;;5053232;28;20708;-84
2023/07/26 11:56:47;;;;;;;3.42;1.70;;;;;;;;;;5052332;28;20229;-85
2023/07/26 11:59:15;;;;;;;2.55;1.52;;;;;;;;;;5054393;28;20202;-87
2023/07/26 12:01:43;;;;;;;1.60;1.50;;;;;;;;;;5052338;28;20564;-85
2023/07/26 12:04:11;;;;;;;2.55;1.95;;;;;;;;;;5053083;28;20194;-84
2023/07/26 12:06:40;;;;;;;2.72;1.90;;;;;;;;;;5052148;28;20707;-85
2023/07/26 12:09:09;;;;;;;2.15;1.80;;;;;;;;;;5053472;28;20592;-85
2023/07/26 12:11:37;;;;;;;1.83;1.70;;;;;;;;;;5044507;28;20264;-86
2023/07/26 12:14:04;;;;;;;2.53;1.80;;;;;;;;;;5052524;28;20221;-89
2023/07/26 12:16:32;;;;;;;1.95;1.83;;;;;;;;;;5052916;28;20222;-86
2023/07/26 12:19:01;;;;;;;3.35;1.88;;;;;;;;;;5053113;28;20222;-86
2023/07/26 12:21:28;;;;;;;3.38;2.53;;;;;;;;;;5052337;28;20275;-85
2023/07/26 12:23:57;;;;;;;2.00;1.63;;;;;;;;;;5053966;28;20461;-90
2023/07/26 12:26:24;;;;;;;4.10;1.65;;;;;;;;;;5045817;28;20232;-85
2023/07/26 12:28:52;;;;;;;1.60;1.45;;;;;;;;;;5052145;28;20240;-86
2023/07/26 12:31:19;;;;;;;4.22;1.88;;;;;;;;;;5053228;28;20229;-86
2023/07/26 12:33:58;;;;;;;3.50;1.80;;;;;;;;;;5052958;28;20245;-87
2023/07/26 12:36:28;;;;;;;2.38;2.17;;;;;;;;;;5050520;28;20676;-86
2023/07/26 12:38:55;;;;;;;2.08;1.88;;;;;;;;;;5042364;28;20257;-86
2023/07/26 12:41:23;;;;;;;1.95;1.73;;;;;;;;;;5052710;28;20217;-86
2023/07/26 12:43:52;;;;;;;1.58;1.48;;;;;;;;;;5045069;28;20777;-86
2023/07/26 12:46:19;;;;;;;2.63;1.90;;;;;;;;;;5052196;28;20621;-86
2023/07/26 12:48:46;;;;;;;3.35;1.88;;;;;;;;;;5049148;28;20754;-85
2023/07/26 12:51:15;;;;;;;2.78;1.60;;;;;;;;;;5049085;28;20684;-86
2023/07/26 12:53:43;;;;;;;2.80;1.50;;;;;;;;;;5050528;28;20253;-85
2023/07/26 12:56:10;;;;;;;2.03;1.70;;;;;;;;;;5052199;28;20216;-85
2023/07/26 12:58:37;;;;;;;2.78;1.85;;;;;;;;;;5051504;28;20237;-85
2023/07/26 13:01:04;;;;;;;1.40;1.30;;;;;;;;;;5052938;28;20202;-85
2023/07/26 13:03:31;;;;;;;1.70;1.50;;;;;;;;;;5052558;28;20234;-86
2023/07/26 13:05:59;;;;;;;2.55;1.60;;;;;;;;;;5047191;28;20190;-87
2023/07/26 13:08:27;;;;;;;2.03;1.77;;;;;;;;;;5041047;28;20239;-84
2023/07/26 13:10:55;;;;;;;1.25;1.15;;;;;;;;;;5044747;28;20209;-89
2023/07/26 13:13:22;;;;;;;3.20;1.30;;;;;;;;;;5051352;28;20229;-85
2023/07/26 13:15:49;;;;;;;1.70;1.60;;;;;;;;;;5047519;28;20229;-84
2023/07/26 13:18:16;;;;;;;1.63;1.52;;;;;;;;;;5051713;28;20233;-83
2023/07/26 13:20:43;;;;;;;1.65;1.40;;;;;;;;;;5051341;28;20206;-83
2023/07/26 13:23:11;;;;;;;1.65;1.52;;;;;;;;;;5050784;28;20703;-84
2023/07/26 13:25:40;;;;;;;1.50;1.30;;;;;;;;;;5050291;28;20210;-83
2023/07/26 13:28:07;;;;;;;1.50;1.35;;;;;;;;;;5043510;28;20230;-83
2023/07/26 13:30:34;;;;;;;2.80;1.58;;;;;;;;;;5049997;28;20214;-84
2023/07/26 13:33:01;;;;;;;2.13;1.63;;;;;;;;;;5045235;28;20237;-83
2023/07/26 13:35:28;;;;;;;1.67;1.58;;;;;;;;;;5045978;28;20201;-83
2023/07/26 13:37:55;;;;;;;1.77;1.67;;;;;;;;;;5048688;28;20759;-83
2023/07/26 13:40:23;;;;;;;1.55;1.45;;;;;;;;;;5041720;28;20205;-83
2023/07/26 13:42:51;;;;;;;2.90;1.27;;;;;;;;;;5047153;28;20253;-88
2023/07/26 13:45:18;;;;;;;2.08;1.40;;;;;;;;;;5048121;28;20247;-85
2023/07/26 13:47:45;;;;;;;2.95;1.20;;;;;;;;;;5054986;28;20636;-86
2023/07/26 13:50:13;;;;;;;1.70;1.60;;;;;;;;;;5057015;28;20552;-85
2023/07/26 13:52:40;;;;;;;2.30;1.77;;;;;;;;;;5055811;28;20238;-86
2023/07/26 13:55:07;;;;;;;4.57;1.70;;;;;;;;;;5056995;28;20604;-87
2023/07/26 13:57:35;;;;;;;1.48;1.38;;;;;;;;;;5055525;28;20245;-87
2023/07/26 14:00:03;;;;;;;1.65;1.55;;;;;;;;;;5049190;28;20267;-87
2023/07/26 14:02:30;;;;;;;1.42;1.33;;;;;;;;;;5054402;28;20234;-86
2023/07/26 14:04:57;;;;;;;2.42;1.88;;;;;;;;;;5055519;28;20221;-85
2023/07/26 14:07:24;;;;;;;2.47;2.00;;;;;;;;;;5048123;28;20241;-85
2023/07/26 14:09:52;;;;;;;1.90;1.70;;;;;;;;;;5047847;28;20214;-86
2023/07/26 14:12:20;;;;;;;3.92;1.90;;;;;;;;;;5053877;28;20234;-82
2023/07/26 14:14:47;;;;;;;2.35;1.98;;;;;;;;;;5054371;28;20206;-84
2023/07/26 14:17:16;;;;;;;2.95;2.17;;;;;;;;;;5049916;28;20238;-87
2023/07/26 14:19:43;;;;;;;1.50;1.40;;;;;;;;;;5041350;28;20217;-86
2023/07/26 14:22:10;;;;;;;2.30;2.10;;;;;;;;;;5054680;28;20237;-85
2023/07/26 14:24:37;;;;;;;2.25;2.03;;;;;;;;;;5054979;28;20217;-86
2023/07/26 14:27:04;;;;;;;3.47;1.92;;;;;;;;;;5054228;28;20238;-84
2023/07/26 14:29:31;;;;;;;2.20;1.80;;;;;;;;;;5048790;28;20205;-84
2023/07/26 14:31:58;;;;;;;2.42;1.80;;;;;;;;;;5044901;28;20225;-84
2023/07/26 14:34:27;;;;;;;2.38;2.13;;;;;;;;;;5054600;28;20202;-84
2023/07/26 14:36:54;;;;;;;4.68;1.77;;;;;;;;;;5045142;28;20726;-85
2023/07/26 14:39:21;;;;;;;2.85;1.90;;;;;;;;;;5053977;28;20198;-86
2023/07/26 14:41:48;;;;;;;1.92;1.83;;;;;;;;;;5043501;28;20206;-85
2023/07/26 14:44:15;;;;;;;1.50;1.40;;;;;;;;;;5040154;28;20202;-87
2023/07/26 14:46:43;;;;;;;1.65;1.55;;;;;;;;;;5040285;28;20222;-86